Time;durP1;ratioP1;P1;durP2;ratioP2;P2;SDS_P1;SDS_P2;PMS_P1;PMS_P2;Temp;Humidity;BMP_temperature;BMP_pressure;BME280_temperature;BME280_humidity;BME280_pressure;Samples;Min_cycle;Max_cycle;Signal;HPM_P1;HPM_P2
2021/09/01 00:02:05;;;;;;;4.90;2.53;;;;;;;18.81;100.00;96398.56;5091496;28;20287;-83
2021/09/01 00:04:32;;;;;;;4.13;3.73;;;;;;;18.80;100.00;96373.78;5091710;28;20200;-84
2021/09/01 00:06:59;;;;;;;4.33;3.93;;;;;;;19.01;100.00;96357.53;5091203;28;20292;-84
2021/09/01 00:09:26;;;;;;;4.30;4.00;;;;;;;18.92;100.00;96368.66;5091332;28;20232;-84
2021/09/01 00:11:55;;;;;;;5.43;5.03;;;;;;;18.82;100.00;96366.41;5091398;28;20235;-83
2021/09/01 00:14:22;;;;;;;5.33;4.93;;;;;;;18.95;100.00;96353.06;5090929;28;20307;-83
2021/09/01 00:16:50;;;;;;;5.57;5.17;;;;;;;19.06;100.00;96351.59;5091373;28;20243;-84
2021/09/01 00:19:19;;;;;;;5.67;5.27;;;;;;;19.14;100.00;96343.38;5091246;28;20618;-84
2021/09/01 00:21:46;;;;;;;5.73;5.27;;;;;;;19.03;100.00;96332.56;5093178;28;20250;-83
2021/09/01 00:24:15;;;;;;;6.20;5.70;;;;;;;19.05;100.00;96336.66;5094624;28;20246;-82
2021/09/01 00:26:43;;;;;;;6.33;5.83;;;;;;;19.01;100.00;96340.75;5095026;28;20630;-83
2021/09/01 00:29:12;;;;;;;5.57;5.00;;;;;;;18.97;100.00;96336.88;5094715;28;20287;-84
2021/09/01 00:31:39;;;;;;;4.37;4.03;;;;;;;19.10;100.00;96352.00;5094923;28;20905;-83
2021/09/01 00:34:07;;;;;;;4.23;3.93;;;;;;;18.95;100.00;96361.06;5094921;28;20227;-83
2021/09/01 00:36:35;;;;;;;4.93;4.53;;;;;;;18.41;100.00;96332.03;5095081;28;20200;-83
2021/09/01 00:39:03;;;;;;;6.80;4.87;;;;;;;18.04;100.00;96326.31;5094565;28;20207;-82
2021/09/01 00:41:31;;;;;;;4.90;4.33;;;;;;;18.32;100.00;96323.44;5095007;28;20575;-83
2021/09/01 00:43:59;;;;;;;3.67;3.37;;;;;;;18.46;100.00;96346.38;5094086;28;20814;-83
2021/09/01 00:46:27;;;;;;;4.13;3.47;;;;;;;18.59;100.00;96336.72;5094613;28;20192;-83
2021/09/01 00:48:55;;;;;;;4.00;3.70;;;;;;;18.70;100.00;96336.94;5094359;28;20192;-83
2021/09/01 00:51:22;;;;;;;8.83;4.20;;;;;;;18.78;100.00;96343.91;5094542;28;20744;-83
2021/09/01 00:53:52;;;;;;;6.03;3.87;;;;;;;18.71;100.00;96340.41;5094280;28;20192;-83
2021/09/01 00:56:19;;;;;;;4.07;3.57;;;;;;;18.58;100.00;96332.44;5094427;28;20601;-82
2021/09/01 00:58:48;;;;;;;7.70;4.20;;;;;;;18.42;100.00;96323.84;5094145;28;20691;-83
2021/09/01 01:01:18;;;;;;;5.30;4.17;;;;;;;18.53;100.00;96317.91;5094670;28;20192;-83
2021/09/01 01:03:49;;;;;;;4.37;4.07;;;;;;;18.33;100.00;96318.97;5094164;28;20245;-83
2021/09/01 01:06:19;;;;;;;4.20;3.80;;;;;;;18.25;100.00;96323.47;5094032;28;20752;-83
2021/09/01 01:08:47;;;;;;;4.13;3.73;;;;;;;18.32;100.00;96322.63;5094336;28;20204;-83
2021/09/01 01:11:17;;;;;;;4.20;3.90;;;;;;;18.16;100.00;96315.88;5094070;28;20196;-82
2021/09/01 01:13:45;;;;;;;3.90;3.60;;;;;;;18.25;100.00;96306.66;5093945;28;20196;-83
2021/09/01 01:16:14;;;;;;;7.43;3.67;;;;;;;17.90;100.00;96311.38;5094083;28;20228;-83
2021/09/01 01:18:45;;;;;;;4.37;3.60;;;;;;;17.91;100.00;96305.03;5093844;28;20235;-83
2021/09/01 01:21:15;;;;;;;4.27;3.47;;;;;;;17.94;100.00;96304.63;5094292;28;20274;-83
2021/09/01 01:23:42;;;;;;;4.40;4.00;;;;;;;18.05;100.00;96290.72;5093541;28;20235;-83
2021/09/01 01:26:11;;;;;;;3.40;3.10;;;;;;;18.19;100.00;96295.03;5094131;28;20294;-83
2021/09/01 01:28:38;;;;;;;3.53;3.27;;;;;;;18.11;100.00;96289.88;5093633;28;20196;-82
2021/09/01 01:31:06;;;;;;;5.97;3.80;;;;;;;17.70;100.00;96296.19;5093772;28;20244;-82
2021/09/01 01:33:33;;;;;;;4.20;3.80;;;;;;;17.97;100.00;96298.88;5092966;28;20283;-82
2021/09/01 01:36:00;;;;;;;3.30;3.03;;;;;;;18.02;100.00;96296.47;5093600;28;20220;-82
2021/09/01 01:38:28;;;;;;;3.90;3.60;;;;;;;18.08;100.00;96297.47;5093421;28;20254;-82
2021/09/01 01:40:56;;;;;;;3.97;3.37;;;;;;;18.10;100.00;96298.91;5093496;28;20628;-83
2021/09/01 01:43:25;;;;;;;3.50;3.20;;;;;;;17.86;100.00;96299.50;5092914;28;20235;-82
2021/09/01 01:45:52;;;;;;;3.37;3.13;;;;;;;17.83;100.00;96304.19;5093465;28;20240;-83
2021/09/01 01:48:20;;;;;;;3.77;3.47;;;;;;;17.73;100.00;96292.28;5093267;28;20693;-82
2021/09/01 01:50:47;;;;;;;3.33;3.13;;;;;;;18.00;100.00;96290.50;5093353;28;20214;-83
2021/09/01 01:53:15;;;;;;;4.20;3.80;;;;;;;18.08;100.00;96300.13;5093156;28;20198;-82
2021/09/01 01:55:43;;;;;;;3.90;3.13;;;;;;;17.88;100.00;96297.47;5093140;28;20307;-82
2021/09/01 01:58:10;;;;;;;4.77;3.43;;;;;;;17.79;100.00;96292.34;5093070;28;20239;-83
2021/09/01 02:00:39;;;;;;;3.77;3.47;;;;;;;18.03;100.00;96298.09;5093176;28;20684;-82
2021/09/01 02:03:06;;;;;;;4.30;3.80;;;;;;;17.87;100.00;96299.28;5093201;28;20615;-82
2021/09/01 02:05:34;;;;;;;3.07;2.87;;;;;;;17.85;100.00;96297.88;5093141;28;20283;-83
2021/09/01 02:08:01;;;;;;;7.33;3.93;;;;;;;17.83;100.00;96293.56;5092857;28;20291;-83
2021/09/01 02:10:29;;;;;;;3.20;3.00;;;;;;;17.95;100.00;96290.31;5093031;28;20287;-83
2021/09/01 02:12:56;;;;;;;3.57;3.27;;;;;;;17.93;100.00;96295.00;5093125;28;20192;-83
2021/09/01 02:15:24;;;;;;;4.03;3.73;;;;;;;17.97;100.00;96304.22;5092898;28;20316;-83
2021/09/01 02:17:52;;;;;;;3.27;3.00;;;;;;;17.66;100.00;96294.94;5092742;28;20287;-83
2021/09/01 02:20:20;;;;;;;3.77;3.47;;;;;;;17.78;100.00;96290.72;5093074;28;20206;-83
2021/09/01 02:22:48;;;;;;;3.60;3.30;;;;;;;17.80;100.00;96304.63;5092671;28;20196;-83
2021/09/01 02:25:15;;;;;;;3.20;2.90;;;;;;;17.61;100.00;96304.56;5092447;28;20196;-83
2021/09/01 02:27:44;;;;;;;3.50;3.20;;;;;;;17.93;100.00;96308.31;5092515;28;20198;-83
2021/09/01 02:30:12;;;;;;;4.43;3.83;;;;;;;17.70;100.00;96304.16;5092524;28;20202;-83
2021/09/01 02:32:40;;;;;;;3.77;3.47;;;;;;;17.74;100.00;96304.59;5092518;28;20193;-84
2021/09/01 02:35:10;;;;;;;3.50;3.30;;;;;;;17.88;100.00;96305.44;5092417;28;20227;-84
2021/09/01 02:37:37;;;;;;;3.67;3.37;;;;;;;17.85;100.00;96313.84;5092490;28;20188;-84
2021/09/01 02:40:05;;;;;;;3.17;2.90;;;;;;;17.88;100.00;96302.78;5092357;28;20598;-84
2021/09/01 02:42:32;;;;;;;3.67;3.27;;;;;;;17.86;100.00;96305.63;5092112;28;20680;-83
2021/09/01 02:45:00;;;;;;;3.30;3.00;;;;;;;17.69;100.00;96304.34;5091614;28;20723;-84
2021/09/01 02:47:28;;;;;;;3.93;3.57;;;;;;;17.55;100.00;96301.66;5092642;28;20196;-84
2021/09/01 02:49:55;;;;;;;7.63;3.53;;;;;;;17.44;100.00;96304.91;5091995;28;20199;-82
2021/09/01 02:52:24;;;;;;;3.47;3.17;;;;;;;17.30;100.00;96301.41;5092217;28;20196;-83
2021/09/01 02:54:51;;;;;;;9.93;3.90;;;;;;;17.41;100.00;96301.84;5092056;28;20673;-83
2021/09/01 02:57:19;;;;;;;4.53;3.53;;;;;;;17.68;100.00;96305.38;5092178;28;20199;-82
2021/09/01 02:59:46;;;;;;;3.83;3.53;;;;;;;17.55;100.00;96306.16;5091784;28;20242;-83
2021/09/01 03:02:13;;;;;;;4.20;3.53;;;;;;;17.65;100.00;96319.06;5092078;28;20196;-83
2021/09/01 03:04:41;;;;;;;3.60;3.17;;;;;;;17.54;100.00;96308.00;5092264;28;20580;-83
2021/09/01 03:07:08;;;;;;;3.37;3.07;;;;;;;17.63;100.00;96313.13;5092071;28;20196;-83
2021/09/01 03:09:37;;;;;;;3.87;3.57;;;;;;;17.60;100.00;96309.06;5091942;28;20727;-82
2021/09/01 03:12:05;;;;;;;4.33;3.30;;;;;;;17.30;100.00;96316.53;5092338;28;20203;-82
2021/09/01 03:14:32;;;;;;;4.07;3.67;;;;;;;17.56;100.00;96311.31;5091802;28;20204;-83
2021/09/01 03:17:01;;;;;;;5.50;4.17;;;;;;;17.19;100.00;96312.63;5091930;28;20711;-82
2021/09/01 03:19:28;;;;;;;3.60;3.30;;;;;;;17.16;100.00;96323.63;5091568;28;20208;-83
2021/09/01 03:21:56;;;;;;;3.23;2.93;;;;;;;17.31;100.00;96324.28;5091939;28;20245;-83
2021/09/01 03:24:23;;;;;;;4.03;3.20;;;;;;;17.19;100.00;96325.09;5091997;28;20636;-83
2021/09/01 03:26:52;;;;;;;3.93;3.63;;;;;;;17.52;100.00;96327.84;5087217;28;20330;-82
2021/09/01 03:29:19;;;;;;;5.63;3.67;;;;;;;17.48;100.00;96332.72;5071113;28;20200;-82
2021/09/01 03:31:46;;;;;;;3.20;2.90;;;;;;;17.45;100.00;96327.00;5071748;28;20665;-82
2021/09/01 03:34:14;;;;;;;4.50;3.50;;;;;;;17.57;100.00;96336.03;5071234;28;20283;-82
2021/09/01 03:36:41;;;;;;;4.30;3.13;;;;;;;17.65;100.00;96338.50;5071185;28;20227;-82
2021/09/01 03:39:08;;;;;;;3.93;3.00;;;;;;;17.60;100.00;96335.63;5071396;28;20556;-82
2021/09/01 03:41:36;;;;;;;3.53;2.90;;;;;;;17.49;100.00;96341.50;5071325;28;20202;-82
2021/09/01 03:44:05;;;;;;;5.10;2.93;;;;;;;17.54;100.00;96341.75;5070993;28;20323;-82
2021/09/01 03:46:32;;;;;;;6.30;2.90;;;;;;;17.31;100.00;96345.53;5071459;28;20196;-82
2021/09/01 03:48:59;;;;;;;3.43;3.13;;;;;;;17.28;100.00;96351.28;5071059;28;20311;-82
2021/09/01 03:51:26;;;;;;;6.00;3.13;;;;;;;17.46;100.00;96356.03;5071300;28;20207;-84
2021/09/01 03:53:54;;;;;;;3.70;3.33;;;;;;;17.50;100.00;96348.50;5071039;28;20210;-81
2021/09/01 03:56:21;;;;;;;3.23;2.93;;;;;;;17.19;100.00;96359.63;5073610;28;20724;-82
2021/09/01 03:58:48;;;;;;;4.00;3.40;;;;;;;17.20;100.00;96359.41;5074953;28;20684;-82
2021/09/01 04:01:17;;;;;;;3.37;3.17;;;;;;;17.25;100.00;96356.97;5074964;28;20291;-82
2021/09/01 04:03:44;;;;;;;3.27;3.00;;;;;;;17.24;100.00;96363.28;5074495;28;20204;-82
2021/09/01 04:06:11;;;;;;;3.47;2.87;;;;;;;17.27;100.00;96352.28;5075090;28;20198;-80
2021/09/01 04:08:38;;;;;;;4.23;3.20;;;;;;;17.34;100.00;96350.47;5075079;28;20250;-80
2021/09/01 04:11:06;;;;;;;3.60;3.30;;;;;;;17.35;100.00;96357.44;5074788;28;20254;-80
2021/09/01 04:13:34;;;;;;;3.93;3.50;;;;;;;17.50;100.00;96362.59;5074764;28;20207;-81
2021/09/01 04:16:01;;;;;;;3.17;2.87;;;;;;;17.45;100.00;96361.53;5074857;28;20216;-80
2021/09/01 04:18:30;;;;;;;4.47;3.57;;;;;;;17.23;100.00;96371.47;5074731;28;20197;-81
2021/09/01 04:20:57;;;;;;;5.27;3.10;;;;;;;17.22;100.00;96375.97;5075238;28;20255;-81
2021/09/01 04:23:25;;;;;;;5.60;3.63;;;;;;;17.23;100.00;96374.13;5074410;28;20699;-81
2021/09/01 04:25:52;;;;;;;4.00;3.17;;;;;;;17.40;100.00;96364.81;5074797;28;20196;-81
2021/09/01 04:28:19;;;;;;;5.40;3.63;;;;;;;17.53;100.00;96369.34;5074642;28;20206;-81
2021/09/01 04:30:46;;;;;;;3.60;3.30;;;;;;;17.54;100.00;96376.28;5074683;28;20690;-80
2021/09/01 04:33:13;;;;;;;4.83;4.33;;;;;;;17.40;100.00;96369.28;5074487;28;20308;-81
2021/09/01 04:35:42;;;;;;;7.53;3.53;;;;;;;17.54;100.00;96371.78;5074837;28;20227;-80
2021/09/01 04:38:11;;;;;;;4.90;3.47;;;;;;;17.56;100.00;96367.09;5074401;28;20666;-81
2021/09/01 04:40:38;;;;;;;4.20;3.77;;;;;;;17.60;100.00;96362.22;5074618;28;20193;-81
2021/09/01 04:43:05;;;;;;;4.93;3.40;;;;;;;17.65;100.00;96365.06;5074310;28;20780;-81
2021/09/01 04:45:33;;;;;;;4.47;3.73;;;;;;;17.65;100.00;96370.38;5074538;28;20588;-81
2021/09/01 04:48:00;;;;;;;3.93;3.20;;;;;;;17.62;100.00;96362.81;5074178;28;20203;-81
2021/09/01 04:50:28;;;;;;;7.23;6.10;;;;;;;17.61;100.00;96371.81;5074474;28;20280;-81
2021/09/01 04:52:56;;;;;;;5.00;4.60;;;;;;;17.27;100.00;96378.03;5074083;28;20244;-81
2021/09/01 04:55:24;;;;;;;4.57;4.17;;;;;;;17.15;100.00;96371.66;5074610;28;20201;-81
2021/09/01 04:57:51;;;;;;;3.97;3.57;;;;;;;17.19;100.00;96376.34;5074284;28;20306;-81
2021/09/01 05:00:18;;;;;;;7.93;4.23;;;;;;;17.22;100.00;96375.16;5073850;28;20197;-81
2021/09/01 05:02:46;;;;;;;3.43;3.13;;;;;;;17.17;100.00;96383.69;5074244;28;20218;-81
2021/09/01 05:05:13;;;;;;;4.33;3.80;;;;;;;17.29;100.00;96376.81;5074014;28;20231;-81
2021/09/01 05:07:40;;;;;;;4.10;3.80;;;;;;;17.23;100.00;96377.59;5073171;28;20219;-81
2021/09/01 05:10:11;;;;;;;4.93;3.80;;;;;;;17.03;100.00;96379.34;5073801;28;20208;-81
2021/09/01 05:12:39;;;;;;;6.20;3.43;;;;;;;17.01;100.00;96373.41;5074198;28;20188;-81
2021/09/01 05:15:07;;;;;;;4.13;3.70;;;;;;;17.13;100.00;96374.47;5074117;28;20287;-80
2021/09/01 05:17:34;;;;;;;4.90;3.50;;;;;;;17.13;100.00;96366.53;5073795;28;20235;-80
2021/09/01 05:20:01;;;;;;;6.10;3.20;;;;;;;17.10;100.00;96372.22;5073490;28;20280;-81
2021/09/01 05:22:32;;;;;;;5.70;3.20;;;;;;;17.37;100.00;96372.34;5074090;28;20207;-81
2021/09/01 05:25:04;;;;;;;5.67;3.93;;;;;;;17.35;100.00;96375.19;5073910;28;20204;-81
2021/09/01 05:27:36;;;;;;;3.97;3.27;;;;;;;17.41;100.00;96376.25;5073662;28;20191;-81
2021/09/01 05:30:06;;;;;;;3.77;3.30;;;;;;;17.49;100.00;96373.41;5073344;28;20194;-81
2021/09/01 05:32:37;;;;;;;6.13;3.33;;;;;;;17.57;100.00;96365.28;5073741;28;20642;-81
2021/09/01 05:35:07;;;;;;;11.00;3.47;;;;;;;17.64;100.00;96367.94;5073374;28;20721;-81
2021/09/01 05:37:36;;;;;;;3.97;3.20;;;;;;;17.61;100.00;96373.66;5073447;28;20271;-81
2021/09/01 05:40:07;;;;;;;4.23;3.83;;;;;;;17.70;100.00;96373.28;5073079;28;20197;-81
2021/09/01 05:42:36;;;;;;;6.80;3.30;;;;;;;17.79;100.00;96368.63;5073483;28;20629;-80
2021/09/01 05:45:05;;;;;;;4.57;3.17;;;;;;;17.85;100.00;96370.47;5073208;28;20205;-81
2021/09/01 05:47:33;;;;;;;2.93;2.73;;;;;;;17.99;100.00;96368.66;5073228;28;20331;-81
2021/09/01 05:50:01;;;;;;;4.53;3.67;;;;;;;18.10;100.00;96368.06;5073048;28;20200;-81
2021/09/01 05:52:28;;;;;;;3.30;3.00;;;;;;;18.22;100.00;96371.75;5073087;28;20210;-81
2021/09/01 05:54:58;;;;;;;3.93;3.50;;;;;;;18.28;100.00;96365.59;5072897;28;20215;-81
2021/09/01 05:57:34;;;;;;;3.47;3.17;;;;;;;18.36;100.00;96377.91;5073052;28;20240;-81
2021/09/01 06:00:08;;;;;;;5.63;3.03;;;;;;;18.43;100.00;96384.03;5073154;28;20204;-81
2021/09/01 06:02:41;;;;;;;4.03;2.80;;;;;;;18.49;100.00;96385.03;5072835;28;20258;-81
2021/09/01 06:05:10;;;;;;;4.37;2.93;;;;;;;18.66;100.00;96382.78;5072817;28;20189;-81
2021/09/01 06:07:44;;;;;;;3.57;2.97;;;;;;;18.73;100.00;96381.78;5072841;28;20646;-81
2021/09/01 06:10:17;;;;;;;2.97;2.77;;;;;;;18.94;100.00;96375.38;5073128;28;20188;-80
2021/09/01 06:12:48;;;;;;;5.40;2.97;;;;;;;19.03;100.00;96386.66;5072548;28;20197;-81
2021/09/01 06:15:17;;;;;;;3.90;2.80;;;;;;;19.16;100.00;96393.81;5072682;28;20645;-81
2021/09/01 06:17:44;;;;;;;3.83;2.77;;;;;;;19.30;100.00;96395.41;5072572;28;20312;-81
2021/09/01 06:20:12;;;;;;;2.90;2.70;;;;;;;19.40;100.00;96397.63;5071596;28;20224;-81
2021/09/01 06:22:40;;;;;;;2.90;2.60;;;;;;;19.46;100.00;96408.22;5072574;28;20198;-81
2021/09/01 06:25:08;;;;;;;2.90;2.53;;;;;;;19.58;100.00;96419.06;5072207;28;20201;-81
2021/09/01 06:27:35;;;;;;;4.00;3.60;;;;;;;19.65;100.00;96417.22;5072532;28;20203;-81
2021/09/01 06:30:02;;;;;;;78.63;50.53;;;;;;;19.80;100.00;96426.78;5072248;28;20740;-81
2021/09/01 06:32:31;;;;;;;22.23;17.13;;;;;;;19.81;100.00;96429.25;5072693;28;20200;-81
2021/09/01 06:34:58;;;;;;;31.40;23.90;;;;;;;20.00;100.00;96435.50;5072151;28;20207;-81
2021/09/01 06:37:26;;;;;;;3.13;2.93;;;;;;;20.00;100.00;96443.53;5072047;28;20224;-81
2021/09/01 06:39:53;;;;;;;2.70;2.50;;;;;;;20.07;100.00;96446.16;5072443;28;20223;-81
2021/09/01 06:42:21;;;;;;;3.50;3.20;;;;;;;20.24;100.00;96449.94;5072299;28;20217;-81
2021/09/01 06:44:48;;;;;;;3.03;2.83;;;;;;;20.51;100.00;96452.47;5071661;28;20307;-82
2021/09/01 06:47:16;;;;;;;4.17;3.00;;;;;;;20.53;100.00;96445.06;5072500;28;20369;-81
2021/09/01 06:49:44;;;;;;;3.80;3.50;;;;;;;20.55;100.00;96451.81;5072228;28;20224;-82
2021/09/01 06:52:12;;;;;;;2.77;2.57;;;;;;;20.85;100.00;96467.19;5072105;28;20229;-81
2021/09/01 06:54:39;;;;;;;2.70;2.50;;;;;;;20.67;100.00;96459.94;5071608;28;20288;-81
2021/09/01 06:57:07;;;;;;;3.53;3.20;;;;;;;20.52;100.00;96454.09;5072318;28;20311;-81
2021/09/01 06:59:34;;;;;;;3.13;2.93;;;;;;;20.57;100.00;96449.72;5072113;28;20219;-81
2021/09/01 07:02:01;;;;;;;3.47;2.70;;;;;;;21.07;100.00;96456.94;5072111;28;20236;-81
2021/09/01 07:04:29;;;;;;;3.50;2.50;;;;;;;21.45;100.00;96459.47;5072135;28;20201;-82
2021/09/01 07:06:57;;;;;;;4.73;2.40;;;;;;;21.72;100.00;96470.69;5071968;28;20275;-82
2021/09/01 07:09:25;;;;;;;2.60;2.40;;;;;;;21.88;100.00;96471.09;5071759;28;20283;-82
2021/09/01 07:11:52;;;;;;;2.90;2.70;;;;;;;21.98;100.00;96468.72;5071707;28;20255;-81
2021/09/01 07:14:19;;;;;;;2.60;2.40;;;;;;;21.96;100.00;96462.75;5071950;28;20197;-81
2021/09/01 07:16:46;;;;;;;3.03;2.73;;;;;;;22.31;100.00;96461.09;5071806;28;20911;-81
2021/09/01 07:19:14;;;;;;;2.47;2.27;;;;;;;22.44;100.00;96481.47;5071649;28;20193;-81
2021/09/01 07:21:41;;;;;;;3.00;2.80;;;;;;;22.39;100.00;96484.03;5071672;28;20201;-81
2021/09/01 07:24:10;;;;;;;4.73;2.30;;;;;;;22.28;100.00;96480.28;5071469;28;20197;-81
2021/09/01 07:26:37;;;;;;;2.07;1.97;;;;;;;22.58;100.00;96483.97;5072087;28;20201;-80
2021/09/01 07:29:05;;;;;;;4.97;2.30;;;;;;;22.57;100.00;96485.03;5071554;28;20201;-81
2021/09/01 07:31:32;;;;;;;2.83;2.20;;;;;;;22.82;100.00;96488.34;5074702;28;20256;-81
2021/09/01 07:33:59;;;;;;;3.20;2.27;;;;;;;22.79;100.00;96500.34;5075468;28;20196;-81
2021/09/01 07:36:27;;;;;;;2.60;2.40;;;;;;;23.00;100.00;96496.34;5075702;28;20200;-81
2021/09/01 07:38:54;;;;;;;2.87;2.43;;;;;;;23.09;100.00;96504.03;5075588;28;20204;-81
2021/09/01 07:41:23;;;;;;;2.10;2.00;;;;;;;23.23;100.00;96508.09;5075988;28;20189;-81
2021/09/01 07:43:50;;;;;;;3.43;2.20;;;;;;;22.98;100.00;96497.59;5075295;28;20232;-81
2021/09/01 07:46:18;;;;;;;3.90;2.60;;;;;;;22.87;100.00;96501.06;5075360;28;20196;-81
2021/09/01 07:48:45;;;;;;;3.07;2.20;;;;;;;23.00;100.00;96493.66;5075408;28;20193;-81
2021/09/01 07:51:12;;;;;;;3.30;3.00;;;;;;;23.15;100.00;96485.16;5075461;28;20235;-81
2021/09/01 07:53:40;;;;;;;2.80;2.50;;;;;;;23.78;100.00;96491.66;5075337;28;20279;-81
2021/09/01 07:56:07;;;;;;;3.87;2.80;;;;;;;23.95;100.00;96497.09;5075454;28;20201;-81
2021/09/01 07:58:35;;;;;;;2.57;2.37;;;;;;;24.22;100.00;96494.69;5075099;28;20227;-81
2021/09/01 08:01:03;;;;;;;2.83;2.63;;;;;;;24.39;100.00;96497.41;5075642;28;20201;-82
2021/09/01 08:03:32;;;;;;;3.40;3.00;;;;;;;24.43;100.00;96494.03;5075138;28;20200;-81
2021/09/01 08:05:59;;;;;;;14.17;12.77;;;;;;;24.70;100.00;96490.75;5075252;28;20197;-81
2021/09/01 08:08:27;;;;;;;3.20;2.90;;;;;;;24.95;100.00;96486.84;5075074;28;20208;-81
2021/09/01 08:10:54;;;;;;;4.27;3.87;;;;;;;25.12;100.00;96491.19;5075346;28;20199;-82
2021/09/01 08:13:21;;;;;;;2.73;2.53;;;;;;;25.14;100.00;96501.69;5074957;28;20232;-81
2021/09/01 08:15:50;;;;;;;2.47;2.27;;;;;;;24.75;100.00;96496.19;5075009;28;20580;-81
2021/09/01 08:18:18;;;;;;;3.00;2.80;;;;;;;25.28;100.00;96497.59;5074770;28;20224;-82
2021/09/01 08:20:45;;;;;;;3.17;2.97;;;;;;;25.41;100.00;96493.78;5074914;28;20199;-81
2021/09/01 08:23:12;;;;;;;2.57;2.37;;;;;;;25.57;100.00;96501.00;5074808;28;20197;-81
2021/09/01 08:25:39;;;;;;;2.20;2.10;;;;;;;25.73;100.00;96502.00;5075139;28;20577;-81
2021/09/01 08:28:07;;;;;;;2.70;2.50;;;;;;;26.33;100.00;96492.28;5074946;28;20233;-81
2021/09/01 08:30:34;;;;;;;3.10;2.40;;;;;;;26.69;100.00;96492.66;5074818;28;20201;-82
2021/09/01 08:33:03;;;;;;;2.53;2.20;;;;;;;26.43;100.00;96496.94;5074606;28;20325;-81
2021/09/01 08:35:30;;;;;;;2.53;2.33;;;;;;;26.94;100.00;96498.25;5074931;28;20215;-82
2021/09/01 08:37:58;;;;;;;2.88;2.67;;;;;;;26.44;100.00;96498.59;5074675;28;20784;-81
2021/09/01 08:40:25;;;;;;;2.77;2.57;;;;;;;26.65;100.00;96486.97;5074900;28;20229;-82
2021/09/01 08:42:52;;;;;;;3.65;2.95;;;;;;;26.26;100.00;96497.06;5072927;28;20288;-82
2021/09/01 08:45:20;;;;;;;3.47;3.17;;;;;;;26.48;100.00;96492.47;5074458;28;20264;-82
2021/09/01 08:47:47;;;;;;;3.87;3.47;;;;;;;26.66;100.00;96488.59;5074678;28;20204;-82
2021/09/01 08:50:16;;;;;;;3.60;3.10;;;;;;;26.87;100.00;96480.69;5074406;28;20252;-81
2021/09/01 08:52:43;;;;;;;5.77;3.10;;;;;;;26.45;100.00;96492.13;5074257;28;20201;-82
2021/09/01 08:55:14;;;;;;;45.30;36.60;;;;;;;26.05;100.00;96488.72;5074183;28;20288;-82
2021/09/01 08:57:41;;;;;;;4.30;3.53;;;;;;;26.45;100.00;96484.84;5074129;28;20740;-82
2021/09/01 09:00:10;;;;;;;3.83;3.53;;;;;;;26.82;100.00;96486.03;5074173;28;20272;-82
2021/09/01 09:02:38;;;;;;;3.60;3.30;;;;;;;27.08;100.00;96481.66;5074150;28;20201;-82
2021/09/01 09:05:07;;;;;;;3.47;3.17;;;;;;;27.30;100.00;96485.09;5074340;28;20280;-82
2021/09/01 09:07:53;;;;;;;2.67;2.47;;;;;;;27.02;100.00;96483.50;5074382;28;20197;-82
2021/09/01 09:10:28;;;;;;;2.95;2.75;;;;;;;27.00;100.00;96474.84;5074020;28;20189;-82
2021/09/01 09:13:00;;;;;;;4.47;3.40;;;;;;;27.68;100.00;96481.28;5073680;28;20288;-82
2021/09/01 09:15:27;;;;;;;3.65;3.35;;;;;;;27.30;100.00;96477.00;5073937;28;20208;-82
2021/09/01 09:17:54;;;;;;;4.20;3.45;;;;;;;27.40;100.00;96468.13;5073733;28;20220;-82
2021/09/01 09:20:27;;;;;;;3.70;3.40;;;;;;;27.53;100.00;96469.56;5073745;28;20236;-82
2021/09/01 09:22:56;;;;;;;3.75;3.30;;;;;;;27.51;100.00;96464.44;5073421;28;20280;-82
2021/09/01 09:25:27;;;;;;;6.07;3.45;;;;;;;27.53;100.00;96458.75;5073990;28;20201;-82
2021/09/01 09:27:58;;;;;;;4.10;3.75;;;;;;;27.93;100.00;96458.19;5073623;28;20643;-82
2021/09/01 09:30:37;;;;;;;6.95;3.60;;;;;;;28.05;100.00;96447.13;5073483;28;20190;-82
2021/09/01 09:33:07;;;;;;;3.60;3.30;;;;;;;27.67;100.00;96449.91;5073454;28;20276;-82
2021/09/01 09:35:56;;;;;;;3.85;3.58;;;;;;;28.20;100.00;96452.59;5073539;28;20193;-82
2021/09/01 09:38:33;;;;;;;3.53;2.95;;;;;;;28.02;100.00;96450.38;5073333;28;20209;-82
2021/09/01 09:41:01;;;;;;;3.78;3.47;;;;;;;26.95;100.00;96442.47;5073813;28;20628;-82
2021/09/01 09:43:29;;;;;;;3.00;2.80;;;;;;;26.23;100.00;96435.59;5072946;28;20736;-82
2021/09/01 09:46:02;;;;;;;4.03;3.72;;;;;;;25.52;100.00;96422.88;5073734;28;20193;-82
2021/09/01 09:48:30;;;;;;;5.07;3.35;;;;;;;25.38;100.00;96410.84;5073117;28;20182;-82
2021/09/01 09:50:58;;;;;;;4.15;3.75;;;;;;;25.25;100.00;96409.34;5073017;28;20205;-82
2021/09/01 09:53:34;;;;;;;4.32;4.00;;;;;;;24.84;100.00;96416.00;5072729;28;20193;-82
2021/09/01 09:56:17;;;;;;;4.18;3.80;;;;;;;24.72;100.00;96399.94;5073480;28;20181;-82
2021/09/01 09:58:47;;;;;;;6.47;3.40;;;;;;;24.55;100.00;96388.38;5072655;28;20205;-82
2021/09/01 10:01:16;;;;;;;4.18;3.75;;;;;;;24.31;100.00;96385.78;5073076;28;20203;-82
2021/09/01 10:03:44;;;;;;;4.40;4.00;;;;;;;24.12;100.00;96382.53;5073112;28;20201;-82
2021/09/01 10:06:16;;;;;;;5.20;3.77;;;;;;;23.76;100.00;96369.47;5072605;28;20288;-82
2021/09/01 10:08:46;;;;;;;4.30;3.90;;;;;;;23.72;100.00;96335.06;5072812;28;20191;-82
2021/09/01 10:11:15;;;;;;;5.13;3.73;;;;;;;23.60;100.00;96328.94;5073121;28;20717;-82
2021/09/01 10:13:44;;;;;;;3.97;3.57;;;;;;;23.52;100.00;96358.81;5072611;28;20197;-82
2021/09/01 10:16:17;;;;;;;6.37;4.10;;;;;;;23.36;100.00;96344.28;5072570;28;20201;-81
2021/09/01 10:18:48;;;;;;;4.70;4.13;;;;;;;22.45;100.00;96310.94;5072540;28;20209;-81
2021/09/01 10:21:17;;;;;;;6.50;3.93;;;;;;;22.25;100.00;96301.34;5072687;28;20280;-81
2021/09/01 10:23:47;;;;;;;5.43;4.40;;;;;;;22.38;100.00;96291.47;5072679;28;20193;-82
2021/09/01 10:26:28;;;;;;;4.30;4.00;;;;;;;22.40;100.00;96292.06;5072567;28;20697;-81
2021/09/01 10:28:57;;;;;;;4.33;4.03;;;;;;;22.60;100.00;96281.00;5072470;28;20181;-82
2021/09/01 10:31:34;;;;;;;4.47;4.07;;;;;;;22.75;100.00;96292.84;5072377;28;20623;-82
2021/09/01 10:34:19;;;;;;;3.63;3.33;;;;;;;23.02;100.00;96303.91;5072638;28;20643;-81
2021/09/01 10:36:51;;;;;;;4.70;3.33;;;;;;;23.93;100.00;96322.88;5072402;28;20196;-81
2021/09/01 10:39:38;;;;;;;4.03;3.73;;;;;;;24.24;100.00;96320.69;5071855;28;20646;-82
2021/09/01 10:42:38;;;;;;;5.20;3.90;;;;;;;24.73;100.00;96314.72;5072628;28;20649;-82
2021/09/01 10:45:11;;;;;;;4.43;4.13;;;;;;;24.89;100.00;96316.59;5072050;28;20662;-81
2021/09/01 10:48:04;;;;;;;3.93;3.63;;;;;;;25.09;100.00;96316.84;5072080;28;20197;-82
2021/09/01 10:50:33;;;;;;;4.30;3.90;;;;;;;24.91;100.00;96327.91;5072232;28;20665;-82
2021/09/01 10:53:04;;;;;;;5.10;4.03;;;;;;;24.66;100.00;96331.88;5072218;28;20262;-81
2021/09/01 10:55:35;;;;;;;4.93;3.90;;;;;;;24.60;100.00;96324.78;5072415;28;20185;-82
2021/09/01 10:58:36;;;;;;;4.60;3.70;;;;;;;24.38;100.00;96303.16;5071652;28;20216;-82
2021/09/01 11:01:15;;;;;;;4.23;3.77;;;;;;;23.94;100.00;96280.72;5010425;28;20223;-82
2021/09/01 11:03:48;;;;;;;4.40;4.10;;;;;;;23.84;100.00;96277.88;5010182;28;20245;-82
2021/09/01 11:06:18;;;;;;;4.03;3.73;;;;;;;23.61;100.00;96255.44;5009867;28;20310;-81
2021/09/01 11:09:06;;;;;;;4.57;4.17;;;;;;;23.78;100.00;96262.72;5009826;28;20219;-81
2021/09/01 11:11:48;;;;;;;4.77;3.87;;;;;;;23.80;100.00;96257.94;5010222;28;20343;-81
2021/09/01 11:14:30;;;;;;;5.00;3.53;;;;;;;24.51;100.00;96279.75;5010012;28;20191;-81
2021/09/01 11:16:58;;;;;;;3.90;3.60;;;;;;;24.97;100.00;96299.19;5010288;28;20191;-81
2021/09/01 11:19:25;;;;;;;3.93;3.63;;;;;;;25.25;100.00;96296.38;5009835;28;20716;-81
2021/09/01 11:21:53;;;;;;;5.07;3.07;;;;;;;25.36;100.00;96333.09;5009816;28;20696;-81
2021/09/01 11:24:21;;;;;;;3.40;3.20;;;;;;;25.75;100.00;96319.53;5009848;28;20282;-81
2021/09/01 11:26:54;;;;;;;3.00;2.70;;;;;;;25.77;100.00;96325.50;5010054;28;20245;-81
2021/09/01 11:29:30;;;;;;;6.80;4.20;;;;;;;26.53;100.00;96322.72;5009723;28;20186;-81
2021/09/01 11:31:58;;;;;;;3.70;3.00;;;;;;;26.51;100.00;96314.06;5041383;28;20201;-81
2021/09/01 11:34:25;;;;;;;2.83;2.63;;;;;;;25.67;100.00;96300.31;5071535;28;20237;-82